Aubrey, Texas
Current Conditions -  °F | °C
As of 3:53 AM on Sunday 23 Nov 2014 (Local Time) from KDTO Reporting Station
Clear Clear  
Wind Chill: 52°   Ceiling: Unl
Heat Index: 52°   Visibility: 8mi
Dew Point: 52°   Wind: 3mph
Humidity: 100%   Direction: 210°SSW
Pressure: 29.61"   Gusts: NA
Location:  33.3°N, 96.99°W
Report Text: KDTO 230953Z AUTO 21003KT 8SM CLR 11/11 A2961 RMK AO2 SLP024 T01110111
Loading
Personal Weather Stations






























Interactive Weather Map New forecast layout! Learn more

10-Day Weather Forecast

Advertisements
Track Severe Weather on mobile